Time;durP1;ratioP1;P1;durP2;ratioP2;P2;SDS_P1;SDS_P2;PMS_P1;PMS_P2;Temp;Humidity;BMP_temperature;BMP_pressure;BME280_temperature;BME280_humidity;BME280_pressure;Samples;Min_cycle;Max_cycle;Signal;HPM_P1;HPM_P2
2023/07/29 00:02:10;;;;;;;;;7.00;7.00;;;;;;;;5012855;28;51314;-60
2023/07/29 00:04:35;;;;;;;;;8.33;7.67;;;;;;;;5011926;28;51782;-60
2023/07/29 00:07:00;;;;;;;;;10.00;10.00;;;;;;;;5012184;28;51137;-62
2023/07/29 00:09:25;;;;;;;;;8.00;8.00;;;;;;;;5012066;28;51148;-61
2023/07/29 00:11:51;;;;;;;;;8.00;6.67;;;;;;;;5010979;28;50944;-61
2023/07/29 00:14:16;;;;;;;;;6.67;6.67;;;;;;;;5013219;28;51873;-61
2023/07/29 00:16:42;;;;;;;;;8.00;8.00;;;;;;;;5015758;28;50985;-62
2023/07/29 00:19:08;;;;;;;;;6.00;6.00;;;;;;;;5013689;28;50991;-61
2023/07/29 00:21:33;;;;;;;;;8.00;7.00;;;;;;;;5013685;28;50912;-62
2023/07/29 00:24:00;;;;;;;;;6.00;6.00;;;;;;;;4996352;28;51848;-62
2023/07/29 00:26:28;;;;;;;;;6.00;6.00;;;;;;;;4995851;28;51176;-62
2023/07/29 00:28:53;;;;;;;;;5.00;5.00;;;;;;;;4995722;28;51180;-61
2023/07/29 00:31:19;;;;;;;;;5.33;5.00;;;;;;;;4995958;28;50878;-62
2023/07/29 00:33:44;;;;;;;;;6.00;6.00;;;;;;;;4995240;28;51790;-61
2023/07/29 00:36:09;;;;;;;;;4.00;4.00;;;;;;;;4995319;28;50894;-62
2023/07/29 00:38:34;;;;;;;;;4.33;4.33;;;;;;;;4995428;28;50829;-61
2023/07/29 00:41:03;;;;;;;;;3.00;3.00;;;;;;;;4995755;28;50899;-62
2023/07/29 00:43:28;;;;;;;;;2.67;2.67;;;;;;;;4995219;28;51739;-61
2023/07/29 00:45:54;;;;;;;;;4.00;4.00;;;;;;;;4995417;28;51037;-61
2023/07/29 00:48:19;;;;;;;;;4.67;4.67;;;;;;;;4995238;28;51058;-61
2023/07/29 00:50:45;;;;;;;;;4.00;4.00;;;;;;;;4995261;28;50988;-60
2023/07/29 00:53:10;;;;;;;;;4.33;4.00;;;;;;;;4994709;28;51661;-60
2023/07/29 00:55:35;;;;;;;;;2.00;2.00;;;;;;;;4995099;28;50984;-62
2023/07/29 00:58:00;;;;;;;;;3.00;3.00;;;;;;;;4995139;28;51068;-60
2023/07/29 01:00:26;;;;;;;;;1.00;0.33;;;;;;;;4995576;28;50965;-60
2023/07/29 01:02:54;;;;;;;;;2.33;2.00;;;;;;;;4994938;28;51615;-61
2023/07/29 01:05:19;;;;;;;;;2.00;1.67;;;;;;;;4994988;28;50975;-61
2023/07/29 01:07:45;;;;;;;;;3.00;3.00;;;;;;;;4995272;28;51122;-62
2023/07/29 01:10:17;;;;;;;;;3.00;2.00;;;;;;;;5014774;28;51366;-61
2023/07/29 01:12:48;;;;;;;;;2.00;2.00;;;;;;;;5013379;28;51339;-61
2023/07/29 01:15:16;;;;;;;;;1.00;1.00;;;;;;;;5014789;28;51039;-61
2023/07/29 01:17:49;;;;;;;;;2.00;2.00;;;;;;;;5014952;28;51010;-62
2023/07/29 01:20:15;;;;;;;;;1.00;1.00;;;;;;;;5014768;28;51124;-61
2023/07/29 01:22:41;;;;;;;;;3.00;3.00;;;;;;;;5013412;28;51628;-62
2023/07/29 01:25:06;;;;;;;;;2.00;2.00;;;;;;;;5014080;28;51057;-62
2023/07/29 01:27:32;;;;;;;;;2.00;2.00;;;;;;;;5014587;28;51027;-61
2023/07/29 01:29:57;;;;;;;;;2.00;2.00;;;;;;;;5014778;28;51178;-61
2023/07/29 01:32:23;;;;;;;;;3.00;3.00;;;;;;;;5012635;28;51955;-61
2023/07/29 01:34:53;;;;;;;;;2.00;2.00;;;;;;;;5014151;28;50889;-61
2023/07/29 01:37:20;;;;;;;;;2.67;2.00;;;;;;;;5014709;28;51128;-60
2023/07/29 01:39:47;;;;;;;;;3.00;3.00;;;;;;;;5014490;28;50987;-60
2023/07/29 01:42:12;;;;;;;;;2.33;2.00;;;;;;;;5012815;28;53017;-60
2023/07/29 01:44:38;;;;;;;;;1.33;1.33;;;;;;;;5014299;28;51084;-60
2023/07/29 01:47:03;;;;;;;;;1.33;1.33;;;;;;;;5014367;28;51016;-60
2023/07/29 01:49:28;;;;;;;;;2.33;2.00;;;;;;;;5014231;28;50855;-61
2023/07/29 01:51:53;;;;;;;;;2.00;2.00;;;;;;;;5013682;28;51191;-60
2023/07/29 01:54:18;;;;;;;;;2.00;2.00;;;;;;;;5013816;28;50949;-60
2023/07/29 01:56:44;;;;;;;;;2.00;2.00;;;;;;;;5014225;28;51027;-61
2023/07/29 01:59:09;;;;;;;;;2.67;2.67;;;;;;;;5014286;28;51210;-60
2023/07/29 02:01:34;;;;;;;;;1.67;1.67;;;;;;;;5013806;28;51797;-61
2023/07/29 02:03:59;;;;;;;;;2.00;2.00;;;;;;;;5013941;28;50904;-61
2023/07/29 02:06:24;;;;;;;;;2.33;2.33;;;;;;;;5013941;28;51327;-61
2023/07/29 02:08:50;;;;;;;;;2.00;2.00;;;;;;;;5013796;28;51020;-62
2023/07/29 02:11:16;;;;;;;;;1.00;1.00;;;;;;;;5013632;28;51960;-61
2023/07/29 02:13:41;;;;;;;;;1.00;1.00;;;;;;;;5013878;28;50948;-63
2023/07/29 02:16:07;;;;;;;;;3.00;3.00;;;;;;;;5014028;28;51121;-61
2023/07/29 02:18:32;;;;;;;;;1.67;1.67;;;;;;;;5014281;28;50807;-61
2023/07/29 02:20:57;;;;;;;;;2.00;2.00;;;;;;;;5012122;28;51180;-60
2023/07/29 02:23:22;;;;;;;;;2.00;2.00;;;;;;;;5012632;28;50848;-61
2023/07/29 02:25:48;;;;;;;;;3.00;3.00;;;;;;;;5014277;28;51184;-61
2023/07/29 02:28:13;;;;;;;;;2.00;2.00;;;;;;;;5013960;28;51380;-60
2023/07/29 02:30:40;;;;;;;;;3.00;2.00;;;;;;;;5014094;28;51815;-62
2023/07/29 02:33:06;;;;;;;;;2.00;1.00;;;;;;;;5013651;28;51039;-61
2023/07/29 02:35:31;;;;;;;;;2.00;2.00;;;;;;;;5013491;28;51186;-60
2023/07/29 02:37:56;;;;;;;;;2.00;1.33;;;;;;;;5014032;28;50994;-61
2023/07/29 02:40:22;;;;;;;;;2.00;2.00;;;;;;;;5013498;28;51781;-60
2023/07/29 02:42:47;;;;;;;;;1.33;1.33;;;;;;;;5013534;28;51012;-60
2023/07/29 02:45:13;;;;;;;;;1.00;1.00;;;;;;;;5013438;28;51082;-61
2023/07/29 02:47:38;;;;;;;;;1.00;1.00;;;;;;;;5013642;28;51304;-60
2023/07/29 02:50:04;;;;;;;;;2.00;2.00;;;;;;;;5012800;28;51790;-60
2023/07/29 02:52:29;;;;;;;;;2.00;2.00;;;;;;;;5013222;28;50899;-60
2023/07/29 02:54:54;;;;;;;;;1.00;1.00;;;;;;;;5007014;28;50936;-60
2023/07/29 02:57:20;;;;;;;;;2.67;2.67;;;;;;;;4993775;28;50888;-60
2023/07/29 02:59:45;;;;;;;;;1.00;1.00;;;;;;;;4993319;28;50988;-60
2023/07/29 03:02:10;;;;;;;;;1.33;1.33;;;;;;;;4993534;28;50922;-62
2023/07/29 03:04:35;;;;;;;;;1.33;1.33;;;;;;;;4993046;28;51270;-60
2023/07/29 03:07:01;;;;;;;;;1.00;1.00;;;;;;;;5007852;28;50920;-60
2023/07/29 03:09:26;;;;;;;;;2.00;2.00;;;;;;;;5012688;28;51003;-60
2023/07/29 03:11:52;;;;;;;;;1.00;1.00;;;;;;;;5011883;28;51078;-60
2023/07/29 03:14:17;;;;;;;;;2.00;2.00;;;;;;;;5013089;28;51341;-61
2023/07/29 03:16:43;;;;;;;;;1.00;1.00;;;;;;;;5011935;28;50961;-59
2023/07/29 03:19:08;;;;;;;;;2.00;2.00;;;;;;;;5012833;28;52119;-59
2023/07/29 03:21:33;;;;;;;;;1.33;1.33;;;;;;;;5011395;28;51122;-62
2023/07/29 03:23:58;;;;;;;;;2.67;2.67;;;;;;;;5011559;28;51248;-60
2023/07/29 03:26:23;;;;;;;;;1.00;1.00;;;;;;;;5013286;28;50948;-60
2023/07/29 03:28:49;;;;;;;;;2.00;2.00;;;;;;;;5011249;28;51703;-60
2023/07/29 03:31:14;;;;;;;;;1.33;1.33;;;;;;;;5012964;28;50908;-61
2023/07/29 03:33:39;;;;;;;;;2.00;2.00;;;;;;;;5012559;28;51007;-61
2023/07/29 03:36:04;;;;;;;;;2.00;2.00;;;;;;;;5012667;28;51097;-60
2023/07/29 03:38:29;;;;;;;;;2.33;2.33;;;;;;;;5012520;28;51036;-61
2023/07/29 03:40:55;;;;;;;;;3.00;2.00;;;;;;;;5012885;28;50991;-60
2023/07/29 03:43:20;;;;;;;;;3.00;3.00;;;;;;;;5012542;28;51376;-61
2023/07/29 03:45:46;;;;;;;;;2.00;1.33;;;;;;;;5012763;28;51332;-61
2023/07/29 03:48:11;;;;;;;;;2.00;2.00;;;;;;;;5012476;28;51893;-61
2023/07/29 03:50:37;;;;;;;;;1.33;1.33;;;;;;;;5018805;28;51117;-62
2023/07/29 03:53:02;;;;;;;;;2.67;2.67;;;;;;;;5018776;28;50980;-60
2023/07/29 03:55:29;;;;;;;;;1.33;1.33;;;;;;;;5019255;28;51270;-61
2023/07/29 03:57:55;;;;;;;;;2.67;2.67;;;;;;;;5018688;28;51111;-61
2023/07/29 04:00:20;;;;;;;;;3.00;3.00;;;;;;;;5017642;28;50833;-61
2023/07/29 04:02:45;;;;;;;;;4.00;3.00;;;;;;;;5019024;28;51027;-61
2023/07/29 04:05:11;;;;;;;;;4.33;4.33;;;;;;;;5018738;28;50853;-61
2023/07/29 04:07:36;;;;;;;;;3.00;3.00;;;;;;;;5018447;28;51161;-61
2023/07/29 04:10:01;;;;;;;;;3.00;3.00;;;;;;;;5017162;28;51302;-61
2023/07/29 04:12:27;;;;;;;;;3.00;3.00;;;;;;;;5018678;28;51009;-61
2023/07/29 04:14:52;;;;;;;;;2.67;2.67;;;;;;;;5019279;28;51407;-61
2023/07/29 04:17:17;;;;;;;;;2.00;2.00;;;;;;;;5018556;28;50820;-61
2023/07/29 04:19:42;;;;;;;;;1.33;1.33;;;;;;;;5018572;28;50920;-61
2023/07/29 04:22:08;;;;;;;;;2.00;2.00;;;;;;;;5014274;28;50973;-61
2023/07/29 04:24:33;;;;;;;;;3.00;3.00;;;;;;;;5006766;28;51187;-59
2023/07/29 04:26:58;;;;;;;;;2.00;2.00;;;;;;;;4997155;28;53739;-61
2023/07/29 04:29:23;;;;;;;;;1.00;1.00;;;;;;;;4998807;28;50960;-61
2023/07/29 04:31:52;;;;;;;;;3.00;3.00;;;;;;;;4998814;28;51272;-61
2023/07/29 04:34:20;;;;;;;;;2.00;2.00;;;;;;;;4999040;28;51261;-61
2023/07/29 04:36:45;;;;;;;;;3.00;2.67;;;;;;;;4998200;28;52077;-61
2023/07/29 04:39:11;;;;;;;;;2.00;2.00;;;;;;;;4998768;28;51094;-61
2023/07/29 04:41:36;;;;;;;;;3.00;3.00;;;;;;;;4998930;28;51023;-61
2023/07/29 04:44:01;;;;;;;;;3.33;3.00;;;;;;;;4999018;28;51448;-61
2023/07/29 04:46:26;;;;;;;;;2.00;2.00;;;;;;;;4998469;28;51642;-61
2023/07/29 04:48:51;;;;;;;;;2.00;2.00;;;;;;;;4998762;28;50938;-61
2023/07/29 04:51:17;;;;;;;;;3.00;3.00;;;;;;;;4998388;28;50852;-62
2023/07/29 04:53:42;;;;;;;;;2.00;2.00;;;;;;;;4998792;28;51279;-61
2023/07/29 04:56:07;;;;;;;;;2.67;2.33;;;;;;;;4998330;28;51090;-61
2023/07/29 04:58:35;;;;;;;;;2.00;2.00;;;;;;;;4998631;28;51111;-61
2023/07/29 05:01:01;;;;;;;;;2.00;2.00;;;;;;;;4995159;28;50953;-66
2023/07/29 05:03:26;;;;;;;;;1.00;1.00;;;;;;;;5003478;28;50981;-61
2023/07/29 05:05:53;;;;;;;;;2.33;2.33;;;;;;;;5014594;28;51746;-61
2023/07/29 05:08:18;;;;;;;;;3.00;3.00;;;;;;;;5014862;28;50987;-61
2023/07/29 05:10:43;;;;;;;;;1.33;1.33;;;;;;;;5014833;28;51101;-61
2023/07/29 05:13:08;;;;;;;;;1.67;1.67;;;;;;;;5005651;28;51286;-62
2023/07/29 05:15:34;;;;;;;;;2.00;2.00;;;;;;;;4994818;28;52134;-62
2023/07/29 05:17:59;;;;;;;;;4.00;3.00;;;;;;;;4994941;28;50860;-60
2023/07/29 05:20:24;;;;;;;;;1.33;1.00;;;;;;;;4994569;28;51016;-61
2023/07/29 05:22:49;;;;;;;;;1.00;1.00;;;;;;;;4995344;28;51093;-61
2023/07/29 05:25:14;;;;;;;;;1.00;1.00;;;;;;;;4993305;28;51956;-60
2023/07/29 05:27:40;;;;;;;;;1.67;1.00;;;;;;;;4994899;28;51113;-62
2023/07/29 05:30:06;;;;;;;;;1.67;1.33;;;;;;;;4994875;28;51624;-61
2023/07/29 05:32:31;;;;;;;;;1.67;1.33;;;;;;;;4994779;28;51141;-60
2023/07/29 05:34:56;;;;;;;;;1.33;1.33;;;;;;;;4994010;28;51030;-60
2023/07/29 05:37:22;;;;;;;;;1.00;1.00;;;;;;;;4994859;28;51008;-61
2023/07/29 05:39:47;;;;;;;;;1.00;1.00;;;;;;;;4994518;28;51399;-61
2023/07/29 05:42:12;;;;;;;;;1.00;1.00;;;;;;;;4994767;28;51306;-61
2023/07/29 05:44:37;;;;;;;;;1.00;1.00;;;;;;;;4994307;28;50924;-59
2023/07/29 05:47:03;;;;;;;;;2.00;2.00;;;;;;;;4994678;28;51254;-61
2023/07/29 05:49:28;;;;;;;;;4.00;4.00;;;;;;;;4994177;28;50925;-61
2023/07/29 05:51:53;;;;;;;;;5.00;5.00;;;;;;;;4994787;28;51336;-60
2023/07/29 05:54:19;;;;;;;;;1.00;1.00;;;;;;;;4994212;28;51891;-61
2023/07/29 05:56:44;;;;;;;;;2.00;2.00;;;;;;;;4994495;28;50989;-61
2023/07/29 05:59:09;;;;;;;;;1.00;1.00;;;;;;;;4994509;28;50924;-61
2023/07/29 06:01:34;;;;;;;;;1.00;1.00;;;;;;;;5002616;28;51092;-61
2023/07/29 06:04:00;;;;;;;;;0.33;0.33;;;;;;;;5009249;28;51873;-61
2023/07/29 06:06:25;;;;;;;;;0.00;0.00;;;;;;;;5005221;28;51027;-60
2023/07/29 06:08:50;;;;;;;;;0.67;0.67;;;;;;;;5012037;28;51184;-61
2023/07/29 06:11:15;;;;;;;;;0.00;0.00;;;;;;;;5013587;28;51293;-62
2023/07/29 06:13:40;;;;;;;;;1.00;1.00;;;;;;;;5013743;28;51089;-61
2023/07/29 06:16:05;;;;;;;;;1.00;1.00;;;;;;;;5014176;28;51149;-61
2023/07/29 06:18:31;;;;;;;;;1.00;1.00;;;;;;;;5014131;28;50902;-60
2023/07/29 06:20:56;;;;;;;;;1.00;1.00;;;;;;;;5014089;28;51101;-60
2023/07/29 06:23:21;;;;;;;;;2.00;2.00;;;;;;;;5013842;28;51241;-61
2023/07/29 06:25:46;;;;;;;;;0.33;0.33;;;;;;;;5013915;28;51105;-61
2023/07/29 06:28:11;;;;;;;;;0.00;0.00;;;;;;;;5013935;28;51225;-61
2023/07/29 06:30:37;;;;;;;;;1.00;0.00;;;;;;;;5012761;28;50938;-61
2023/07/29 06:33:03;;;;;;;;;0.00;0.00;;;;;;;;5013643;28;51718;-61
2023/07/29 06:35:28;;;;;;;;;0.33;0.33;;;;;;;;5013440;28;50925;-62
2023/07/29 06:37:53;;;;;;;;;0.00;0.00;;;;;;;;5013784;28;51397;-61
2023/07/29 06:40:18;;;;;;;;;0.00;0.00;;;;;;;;5013840;28;51472;-62
2023/07/29 06:42:44;;;;;;;;;0.33;0.33;;;;;;;;5013459;28;50860;-62
2023/07/29 06:45:09;;;;;;;;;0.33;0.33;;;;;;;;5013268;28;50909;-62
2023/07/29 06:47:35;;;;;;;;;1.00;1.00;;;;;;;;5013683;28;50983;-62
2023/07/29 06:50:00;;;;;;;;;0.00;0.00;;;;;;;;5013140;28;51110;-62
2023/07/29 06:52:25;;;;;;;;;0.00;0.00;;;;;;;;5013409;28;51468;-62
2023/07/29 06:54:51;;;;;;;;;0.67;0.67;;;;;;;;5013215;28;51070;-62
2023/07/29 06:57:16;;;;;;;;;1.33;1.00;;;;;;;;5013462;28;51656;-62
2023/07/29 06:59:41;;;;;;;;;1.00;1.00;;;;;;;;5013188;28;51411;-61
2023/07/29 07:02:06;;;;;;;;;0.00;0.00;;;;;;;;5012850;28;51907;-61
2023/07/29 07:04:31;;;;;;;;;1.33;1.33;;;;;;;;5012680;28;50901;-61
2023/07/29 07:06:57;;;;;;;;;0.00;0.00;;;;;;;;5011808;28;50919;-60
2023/07/29 07:09:22;;;;;;;;;0.00;0.00;;;;;;;;5012966;28;51015;-61
2023/07/29 07:11:47;;;;;;;;;0.00;0.00;;;;;;;;5012748;28;52375;-62
2023/07/29 07:14:12;;;;;;;;;0.00;0.00;;;;;;;;5012788;28;51133;-62
2023/07/29 07:16:39;;;;;;;;;0.33;0.33;;;;;;;;5013068;28;51257;-61
2023/07/29 07:19:04;;;;;;;;;1.00;1.00;;;;;;;;5013039;28;51155;-61
2023/07/29 07:21:30;;;;;;;;;1.00;1.00;;;;;;;;5012247;28;52143;-61
2023/07/29 07:23:55;;;;;;;;;1.00;1.00;;;;;;;;5011361;28;51098;-62
2023/07/29 07:26:20;;;;;;;;;0.00;0.00;;;;;;;;5012839;28;51112;-60
2023/07/29 07:28:47;;;;;;;;;0.00;0.00;;;;;;;;5012827;28;51230;-62
2023/07/29 07:31:13;;;;;;;;;1.00;1.00;;;;;;;;5012675;28;51891;-60
2023/07/29 07:33:38;;;;;;;;;1.00;1.00;;;;;;;;5012527;28;51197;-61
2023/07/29 07:36:03;;;;;;;;;1.33;1.33;;;;;;;;5012364;28;51242;-60
2023/07/29 07:38:28;;;;;;;;;0.00;0.00;;;;;;;;5012982;28;50885;-60
2023/07/29 07:40:57;;;;;;;;;0.00;0.00;;;;;;;;5011141;28;53995;-60
2023/07/29 07:43:22;;;;;;;;;1.00;1.00;;;;;;;;5012466;28;51131;-61
2023/07/29 07:45:48;;;;;;;;;1.33;1.00;;;;;;;;5012554;28;50885;-61
2023/07/29 07:48:13;;;;;;;;;1.00;1.00;;;;;;;;5012601;28;50856;-61
2023/07/29 07:50:38;;;;;;;;;1.00;0.00;;;;;;;;5010651;28;52670;-61
2023/07/29 07:53:03;;;;;;;;;1.00;1.00;;;;;;;;5012351;28;51170;-61
2023/07/29 07:55:29;;;;;;;;;0.00;0.00;;;;;;;;5012619;28;50977;-61
2023/07/29 07:57:55;;;;;;;;;0.33;0.33;;;;;;;;5012619;28;51130;-61
2023/07/29 08:00:20;;;;;;;;;0.00;0.00;;;;;;;;5011782;28;51344;-61
2023/07/29 08:02:45;;;;;;;;;1.00;1.00;;;;;;;;5012226;28;51138;-61
2023/07/29 08:05:10;;;;;;;;;1.00;1.00;;;;;;;;5012121;28;50952;-61
2023/07/29 08:07:35;;;;;;;;;1.00;1.00;;;;;;;;5012368;28;51283;-60
2023/07/29 08:10:01;;;;;;;;;1.00;1.00;;;;;;;;5011595;28;51756;-62
2023/07/29 08:12:26;;;;;;;;;3.00;3.00;;;;;;;;5007156;28;51078;-62
2023/07/29 08:14:51;;;;;;;;;1.00;1.00;;;;;;;;5001629;28;51141;-61
2023/07/29 08:17:16;;;;;;;;;1.00;0.33;;;;;;;;4992427;28;51362;-60
2023/07/29 08:19:42;;;;;;;;;4.33;2.67;;;;;;;;4991761;28;51959;-61
2023/07/29 08:22:07;;;;;;;;;1.33;1.33;;;;;;;;4992095;28;51097;-60
2023/07/29 08:24:33;;;;;;;;;0.33;0.33;;;;;;;;4992217;28;51028;-62
2023/07/29 08:26:59;;;;;;;;;0.00;0.00;;;;;;;;4992420;28;51095;-62
2023/07/29 08:29:24;;;;;;;;;1.00;1.00;;;;;;;;4991680;28;51031;-61
2023/07/29 08:31:51;;;;;;;;;1.00;1.00;;;;;;;;4991628;28;51015;-62
2023/07/29 08:34:16;;;;;;;;;2.00;2.00;;;;;;;;4991758;28;51122;-62
2023/07/29 08:36:41;;;;;;;;;1.00;1.00;;;;;;;;4994199;28;52112;-62
2023/07/29 08:39:06;;;;;;;;;1.00;1.00;;;;;;;;4995431;28;51191;-61
2023/07/29 08:41:40;;;;;;;;;1.00;1.00;;;;;;;;4995446;28;51050;-62
2023/07/29 08:44:17;;;;;;;;;0.67;0.67;;;;;;;;4995598;28;51070;-61
2023/07/29 08:46:42;;;;;;;;;4.33;3.00;;;;;;;;4995548;28;51247;-62
2023/07/29 08:49:08;;;;;;;;;2.00;2.00;;;;;;;;4994691;28;52368;-64
2023/07/29 08:51:33;;;;;;;;;2.00;1.00;;;;;;;;4994430;28;51091;-61
2023/07/29 08:53:58;;;;;;;;;2.00;2.00;;;;;;;;4994999;28;51069;-61
2023/07/29 08:56:24;;;;;;;;;1.00;1.00;;;;;;;;4994903;28;50845;-61
2023/07/29 08:58:49;;;;;;;;;1.00;1.00;;;;;;;;5011139;28;52030;-61
2023/07/29 09:01:17;;;;;;;;;2.33;2.00;;;;;;;;5014141;28;51246;-61
2023/07/29 09:03:43;;;;;;;;;2.00;1.33;;;;;;;;5014437;28;51222;-61
2023/07/29 09:06:08;;;;;;;;;3.00;3.00;;;;;;;;5014434;28;51009;-61
2023/07/29 09:08:34;;;;;;;;;2.00;2.00;;;;;;;;5014259;28;52266;-62
2023/07/29 09:10:59;;;;;;;;;0.00;0.00;;;;;;;;5014450;28;50908;-62
2023/07/29 09:13:25;;;;;;;;;0.33;0.33;;;;;;;;5014625;28;51041;-61
2023/07/29 09:15:53;;;;;;;;;0.00;0.00;;;;;;;;5014887;28;50852;-61
2023/07/29 09:18:19;;;;;;;;;0.00;0.00;;;;;;;;5014591;28;51056;-62
2023/07/29 09:20:48;;;;;;;;;0.00;0.00;;;;;;;;5014317;28;51067;-62
2023/07/29 09:23:14;;;;;;;;;0.00;0.00;;;;;;;;5014483;28;51245;-61
2023/07/29 09:25:39;;;;;;;;;1.00;1.00;;;;;;;;5014623;28;51039;-61
2023/07/29 09:28:09;;;;;;;;;0.00;0.00;;;;;;;;5014421;28;51008;-63
2023/07/29 09:30:34;;;;;;;;;0.00;0.00;;;;;;;;5014532;28;51038;-62
2023/07/29 09:33:00;;;;;;;;;0.00;0.00;;;;;;;;5014376;28;51076;-64
2023/07/29 09:35:27;;;;;;;;;0.00;0.00;;;;;;;;5014179;28;50979;-63
2023/07/29 09:37:53;;;;;;;;;0.00;0.00;;;;;;;;5012869;28;51149;-61
2023/07/29 09:40:18;;;;;;;;;0.00;0.00;;;;;;;;5014115;28;50983;-61
2023/07/29 09:42:53;;;;;;;;;0.00;0.00;;;;;;;;5014289;28;51048;-61
2023/07/29 09:45:19;;;;;;;;;0.33;0.33;;;;;;;;5014466;28;51083;-62
2023/07/29 09:47:46;;;;;;;;;0.33;0.33;;;;;;;;5012893;28;53099;-62
2023/07/29 09:50:11;;;;;;;;;0.00;0.00;;;;;;;;5013785;28;51069;-62
2023/07/29 09:52:36;;;;;;;;;1.00;1.00;;;;;;;;5013996;28;51074;-62
2023/07/29 09:55:02;;;;;;;;;0.33;0.33;;;;;;;;5013896;28;51234;-61
2023/07/29 09:57:27;;;;;;;;;2.00;2.00;;;;;;;;5012012;28;52935;-61
2023/07/29 09:59:56;;;;;;;;;0.00;0.00;;;;;;;;5013820;28;51047;-62
2023/07/29 10:02:21;;;;;;;;;1.67;1.67;;;;;;;;5012598;28;50943;-61
2023/07/29 10:04:46;;;;;;;;;1.33;1.33;;;;;;;;5012336;28;50993;-62
2023/07/29 10:07:12;;;;;;;;;1.33;1.00;;;;;;;;5013533;28;51968;-61
2023/07/29 10:09:38;;;;;;;;;3.00;2.00;;;;;;;;5013445;28;51181;-62
2023/07/29 10:12:05;;;;;;;;;2.00;1.00;;;;;;;;5011221;28;50984;-62
2023/07/29 10:14:31;;;;;;;;;3.00;2.00;;;;;;;;5010420;28;51001;-62
2023/07/29 10:16:56;;;;;;;;;2.00;2.00;;;;;;;;5013133;28;51484;-62
2023/07/29 10:19:22;;;;;;;;;2.00;2.00;;;;;;;;5013116;28;50944;-61
2023/07/29 10:21:48;;;;;;;;;2.00;2.00;;;;;;;;5013388;28;50923;-61
2023/07/29 10:24:19;;;;;;;;;1.00;1.00;;;;;;;;5013422;28;51145;-61
2023/07/29 10:26:46;;;;;;;;;2.00;2.00;;;;;;;;5012879;28;51940;-62
2023/07/29 10:29:12;;;;;;;;;0.00;0.00;;;;;;;;5013151;28;51058;-62
2023/07/29 10:31:38;;;;;;;;;4.00;3.00;;;;;;;;5013105;28;51109;-61
2023/07/29 10:34:03;;;;;;;;;4.33;4.33;;;;;;;;5011518;28;51314;-61
2023/07/29 10:36:29;;;;;;;;;2.00;2.00;;;;;;;;5012616;28;52012;-62
2023/07/29 10:38:54;;;;;;;;;3.67;3.67;;;;;;;;5013374;28;51109;-62
2023/07/29 10:41:19;;;;;;;;;2.00;2.00;;;;;;;;5011644;28;51203;-62
2023/07/29 10:43:45;;;;;;;;;1.33;1.33;;;;;;;;5013318;28;51115;-62
2023/07/29 10:46:20;;;;;;;;;1.00;1.00;;;;;;;;5012651;28;51837;-62
2023/07/29 10:48:55;;;;;;;;;1.00;1.00;;;;;;;;5013237;28;51196;-62
2023/07/29 10:51:32;;;;;;;;;1.33;1.33;;;;;;;;5012626;28;51055;-62
2023/07/29 10:54:01;;;;;;;;;1.00;1.00;;;;;;;;5013303;28;51122;-62
2023/07/29 10:56:36;;;;;;;;;2.00;2.00;;;;;;;;5011289;28;51969;-61
2023/07/29 10:59:27;;;;;;;;;2.00;2.00;;;;;;;;5011662;28;50982;-61
2023/07/29 11:01:54;;;;;;;;;2.67;2.67;;;;;;;;5012893;28;51024;-62
2023/07/29 11:04:30;;;;;;;;;2.00;2.00;;;;;;;;5012547;28;51189;-62
2023/07/29 11:07:04;;;;;;;;;3.00;3.00;;;;;;;;5012609;28;51684;-63
2023/07/29 11:09:41;;;;;;;;;2.33;2.00;;;;;;;;5012359;28;51008;-63
2023/07/29 11:12:25;;;;;;;;;2.00;2.00;;;;;;;;5012593;28;51114;-62
2023/07/29 11:14:50;;;;;;;;;2.33;1.33;;;;;;;;5012555;28;50864;-63
2023/07/29 11:17:15;;;;;;;;;1.00;1.00;;;;;;;;5010986;28;54079;-62
2023/07/29 11:19:41;;;;;;;;;1.33;1.33;;;;;;;;5010856;28;50881;-62
2023/07/29 11:22:06;;;;;;;;;3.00;2.33;;;;;;;;5012480;28;50886;-62
2023/07/29 11:24:31;;;;;;;;;2.00;1.00;;;;;;;;5012668;28;51202;-61
2023/07/29 11:26:56;;;;;;;;;2.00;2.00;;;;;;;;5011915;28;51735;-62
2023/07/29 11:29:21;;;;;;;;;3.00;3.00;;;;;;;;5011031;28;51155;-62
2023/07/29 11:31:47;;;;;;;;;1.67;1.33;;;;;;;;5012293;28;51301;-62
2023/07/29 11:34:17;;;;;;;;;1.67;1.00;;;;;;;;5012252;28;51285;-62
2023/07/29 11:36:45;;;;;;;;;2.00;2.00;;;;;;;;5010653;28;51873;-63
2023/07/29 11:39:11;;;;;;;;;4.00;2.00;;;;;;;;5012230;28;51081;-63
2023/07/29 11:41:36;;;;;;;;;2.67;2.00;;;;;;;;5012206;28;50863;-62
2023/07/29 11:44:02;;;;;;;;;2.33;2.33;;;;;;;;5012693;28;50992;-62
2023/07/29 11:46:27;;;;;;;;;1.33;1.33;;;;;;;;4994027;28;52930;-62
2023/07/29 11:48:55;;;;;;;;;3.00;3.00;;;;;;;;5012250;28;50970;-62
2023/07/29 11:51:21;;;;;;;;;2.33;2.33;;;;;;;;5011858;28;51148;-61
2023/07/29 11:53:46;;;;;;;;;3.00;2.00;;;;;;;;5011737;28;50971;-61
2023/07/29 11:56:13;;;;;;;;;3.00;2.00;;;;;;;;5011534;28;51040;-61
2023/07/29 11:58:38;;;;;;;;;1.00;1.00;;;;;;;;5011342;28;51029;-62
2023/07/29 12:01:03;;;;;;;;;2.00;2.00;;;;;;;;5011561;28;50877;-61
2023/07/29 12:03:29;;;;;;;;;9.67;8.33;;;;;;;;5012125;28;51240;-63
2023/07/29 12:05:54;;;;;;;;;2.00;2.00;;;;;;;;5011347;28;51892;-61
2023/07/29 12:08:19;;;;;;;;;1.00;1.00;;;;;;;;5011607;28;50944;-62
2023/07/29 12:10:45;;;;;;;;;1.00;1.00;;;;;;;;5013703;28;50941;-62
2023/07/29 12:13:10;;;;;;;;;1.33;1.00;;;;;;;;5014329;28;51346;-64
2023/07/29 12:15:37;;;;;;;;;2.33;2.33;;;;;;;;5010037;28;51096;-61
2023/07/29 12:18:03;;;;;;;;;5.00;5.00;;;;;;;;4995425;28;51115;-62
2023/07/29 12:20:29;;;;;;;;;0.00;0.00;;;;;;;;4994623;28;51458;-62
2023/07/29 12:22:58;;;;;;;;;3.00;3.00;;;;;;;;4995551;28;50918;-61
2023/07/29 12:25:25;;;;;;;;;0.67;0.00;;;;;;;;4993590;28;54118;-62
2023/07/29 12:27:50;;;;;;;;;2.00;2.00;;;;;;;;4995195;28;50874;-62
2023/07/29 12:30:17;;;;;;;;;3.33;3.33;;;;;;;;4993637;28;50936;-61
2023/07/29 12:32:45;;;;;;;;;1.33;1.33;;;;;;;;4995236;28;51179;-62
2023/07/29 12:35:11;;;;;;;;;1.67;1.67;;;;;;;;4994285;28;51944;-62
2023/07/29 12:37:38;;;;;;;;;3.33;2.67;;;;;;;;4995224;28;50913;-61
2023/07/29 12:40:04;;;;;;;;;1.67;1.67;;;;;;;;4995059;28;51081;-62
2023/07/29 12:42:29;;;;;;;;;3.33;3.33;;;;;;;;4995267;28;50947;-62
2023/07/29 12:44:54;;;;;;;;;4.00;2.67;;;;;;;;4994453;28;52026;-62
2023/07/29 12:47:19;;;;;;;;;2.00;2.00;;;;;;;;4995053;28;50910;-62
2023/07/29 12:49:45;;;;;;;;;4.00;4.00;;;;;;;;4994424;28;51165;-62
2023/07/29 12:52:10;;;;;;;;;4.00;4.00;;;;;;;;5002837;28;51317;-61
2023/07/29 12:54:35;;;;;;;;;2.33;2.33;;;;;;;;5014256;28;51044;-63
2023/07/29 12:57:00;;;;;;;;;2.33;2.33;;;;;;;;5014796;28;50904;-61
2023/07/29 12:59:26;;;;;;;;;3.67;3.67;;;;;;;;5014580;28;50926;-63
2023/07/29 13:01:51;;;;;;;;;3.00;3.00;;;;;;;;5013346;28;50927;-62
2023/07/29 13:04:16;;;;;;;;;3.33;2.33;;;;;;;;5013593;28;51822;-62
2023/07/29 13:06:41;;;;;;;;;4.00;3.00;;;;;;;;5012630;28;51146;-62
2023/07/29 13:09:07;;;;;;;;;2.67;2.67;;;;;;;;5014192;28;51106;-63
2023/07/29 13:11:32;;;;;;;;;3.00;2.00;;;;;;;;5014762;28;51309;-62
2023/07/29 13:13:58;;;;;;;;;5.00;4.33;;;;;;;;5012684;28;52085;-62
2023/07/29 13:16:23;;;;;;;;;2.00;2.00;;;;;;;;5014164;28;50965;-61
2023/07/29 13:18:48;;;;;;;;;2.33;2.33;;;;;;;;5014053;28;51165;-62
2023/07/29 13:21:13;;;;;;;;;4.00;3.33;;;;;;;;5013261;28;50996;-63
2023/07/29 13:23:38;;;;;;;;;3.67;3.33;;;;;;;;5013617;28;51288;-63
2023/07/29 13:26:04;;;;;;;;;2.67;2.67;;;;;;;;5014495;28;51117;-63
2023/07/29 13:28:29;;;;;;;;;3.00;3.00;;;;;;;;5013962;28;51290;-63
2023/07/29 13:30:54;;;;;;;;;6.00;6.00;;;;;;;;5014408;28;51256;-62
2023/07/29 13:33:19;;;;;;;;;2.33;2.33;;;;;;;;5013885;28;51697;-62
2023/07/29 13:35:46;;;;;;;;;6.33;6.00;;;;;;;;5013767;28;51054;-63
2023/07/29 13:38:11;;;;;;;;;2.00;2.00;;;;;;;;5013929;28;51172;-62
2023/07/29 13:40:36;;;;;;;;;3.00;3.00;;;;;;;;5003932;28;51174;-61
2023/07/29 13:43:01;;;;;;;;;3.00;3.00;;;;;;;;4993875;28;52421;-61
2023/07/29 13:45:27;;;;;;;;;5.00;5.00;;;;;;;;4994242;28;51063;-63
2023/07/29 13:47:52;;;;;;;;;3.00;3.00;;;;;;;;4994025;28;51607;-62
2023/07/29 13:50:18;;;;;;;;;2.00;2.00;;;;;;;;4998109;28;51264;-62
2023/07/29 13:52:43;;;;;;;;;2.00;2.00;;;;;;;;5013427;28;51589;-61
2023/07/29 13:55:08;;;;;;;;;4.00;3.00;;;;;;;;5013916;28;50992;-61
2023/07/29 13:57:33;;;;;;;;;2.00;2.00;;;;;;;;5013700;28;50949;-62
2023/07/29 13:59:59;;;;;;;;;1.33;1.33;;;;;;;;5013515;28;51036;-62
2023/07/29 14:02:26;;;;;;;;;2.00;2.00;;;;;;;;5012982;28;51061;-61
2023/07/29 14:04:51;;;;;;;;;2.00;2.00;;;;;;;;5013152;28;50980;-62
2023/07/29 14:07:16;;;;;;;;;8.00;7.00;;;;;;;;5013147;28;51021;-61
2023/07/29 14:09:42;;;;;;;;;2.33;2.33;;;;;;;;5012910;28;51485;-62
2023/07/29 14:12:12;;;;;;;;;2.00;2.00;;;;;;;;5012966;28;51039;-61
2023/07/29 14:14:37;;;;;;;;;0.00;0.00;;;;;;;;5010591;28;51244;-62
2023/07/29 14:17:02;;;;;;;;;1.33;1.33;;;;;;;;5012089;28;51206;-61
2023/07/29 14:19:27;;;;;;;;;0.33;0.33;;;;;;;;5013264;28;51147;-61
2023/07/29 14:21:53;;;;;;;;;4.33;3.33;;;;;;;;5012750;28;52056;-62
2023/07/29 14:24:19;;;;;;;;;1.33;1.33;;;;;;;;5013038;28;50970;-62
2023/07/29 14:26:44;;;;;;;;;1.33;1.33;;;;;;;;5013727;28;50844;-62
2023/07/29 14:29:10;;;;;;;;;2.00;2.00;;;;;;;;5013884;28;51085;-62
2023/07/29 14:31:35;;;;;;;;;2.33;1.67;;;;;;;;5012481;28;51156;-63
2023/07/29 14:34:00;;;;;;;;;2.00;2.00;;;;;;;;5012445;28;51333;-61
2023/07/29 14:36:26;;;;;;;;;1.00;1.00;;;;;;;;5013231;28;50901;-61